Time;durP1;ratioP1;P1;durP2;ratioP2;P2;SDS_P1;SDS_P2;PMS_P1;PMS_P2;Temp;Humidity;BMP_temperature;BMP_pressure;BME280_temperature;BME280_humidity;BME280_pressure;Samples;Min_cycle;Max_cycle;Signal;HPM_P1;HPM_P2
2023/05/27 00:01:38;;;;;;;0.95;0.95;;;;;;;19.15;100.00;100055.41;5032641;28;20248;-78
2023/05/27 00:04:05;;;;;;;0.80;0.80;;;;;;;19.17;100.00;100050.97;5050088;28;20215;-76
2023/05/27 00:06:31;;;;;;;0.90;0.90;;;;;;;18.95;100.00;100057.56;5051505;28;20211;-78
2023/05/27 00:08:58;;;;;;;0.90;0.90;;;;;;;18.85;100.00;100045.50;5051206;28;20200;-77
2023/05/27 00:11:26;;;;;;;1.00;1.00;;;;;;;18.94;100.00;100052.34;5032625;28;20207;-77
2023/05/27 00:13:53;;;;;;;0.90;0.90;;;;;;;18.98;100.00;100041.72;5050407;28;20199;-78
2023/05/27 00:16:21;;;;;;;1.00;1.00;;;;;;;19.04;100.00;100044.25;5050680;28;20199;-77
2023/05/27 00:18:48;;;;;;;1.00;1.00;;;;;;;19.03;100.00;100042.50;5051313;28;20764;-78
2023/05/27 00:21:15;;;;;;;1.17;1.17;;;;;;;18.88;100.00;100020.91;5050760;28;20302;-78
2023/05/27 00:23:46;;;;;;;1.00;1.00;;;;;;;18.97;100.00;100024.25;5051626;28;20678;-78
2023/05/27 00:26:12;;;;;;;1.00;1.00;;;;;;;18.94;100.00;100032.16;5050800;28;20207;-77
2023/05/27 00:28:39;;;;;;;0.93;0.93;;;;;;;19.10;100.00;100056.38;5050438;28;20269;-77
2023/05/27 00:31:06;;;;;;;0.90;0.90;;;;;;;18.95;100.00;100060.19;5050904;28;20202;-77
2023/05/27 00:33:34;;;;;;;1.33;1.33;;;;;;;18.73;100.00;100040.47;5050963;28;20694;-76
2023/05/27 00:36:01;;;;;;;1.05;1.05;;;;;;;18.78;100.00;100041.25;5051383;28;20206;-76
2023/05/27 00:38:28;;;;;;;0.95;0.95;;;;;;;18.69;100.00;100037.03;5050983;28;20272;-77
2023/05/27 00:40:54;;;;;;;1.00;1.00;;;;;;;18.65;100.00;100032.75;5051578;28;20227;-78
2023/05/27 00:43:21;;;;;;;1.00;1.00;;;;;;;18.62;100.00;100010.94;5031809;28;20211;-77
2023/05/27 00:45:48;;;;;;;1.10;1.10;;;;;;;18.75;100.00;100033.44;5050312;28;20211;-78
2023/05/27 00:48:15;;;;;;;0.95;0.95;;;;;;;18.68;100.00;100023.94;5050616;28;20199;-78
2023/05/27 00:50:43;;;;;;;1.00;1.00;;;;;;;18.74;100.00;100029.06;5049647;28;20682;-77
2023/05/27 00:53:10;;;;;;;1.00;1.00;;;;;;;18.60;100.00;100015.31;5051241;28;20195;-78
2023/05/27 00:55:37;;;;;;;1.10;1.10;;;;;;;18.57;100.00;100024.13;5050559;28;20203;-78
2023/05/27 00:58:06;;;;;;;1.00;1.00;;;;;;;18.73;100.00;100041.34;5051240;28;20204;-77
2023/05/27 01:00:33;;;;;;;1.17;1.17;;;;;;;18.67;100.00;100045.84;5049910;28;20215;-77
2023/05/27 01:03:00;;;;;;;1.10;1.10;;;;;;;18.64;100.00;100048.53;5051035;28;20211;-79
2023/05/27 01:05:29;;;;;;;1.02;1.02;;;;;;;18.54;100.00;100041.72;5015424;28;20215;-77
2023/05/27 01:08:06;;;;;;;1.08;1.08;;;;;;;18.57;100.00;100041.66;5050446;28;20199;-77
2023/05/27 01:10:41;;;;;;;1.02;1.02;;;;;;;18.49;100.00;100046.13;5049441;28;20199;-77
2023/05/27 01:13:17;;;;;;;1.02;1.02;;;;;;;18.19;100.00;100040.50;5046923;28;20627;-78
2023/05/27 01:15:45;;;;;;;1.00;1.00;;;;;;;17.88;100.00;100007.78;5033879;28;20203;-78
2023/05/27 01:18:18;;;;;;;0.93;0.93;;;;;;;18.03;100.00;100023.28;5051161;28;20207;-78
2023/05/27 01:20:48;;;;;;;1.00;1.00;;;;;;;18.15;100.00;100011.75;5049314;28;20745;-79
2023/05/27 01:23:17;;;;;;;1.10;1.10;;;;;;;18.13;100.00;100021.38;5051118;28;20192;-78
2023/05/27 01:25:43;;;;;;;0.90;0.90;;;;;;;18.01;100.00;99997.97;5050127;28;20200;-78
2023/05/27 01:28:10;;;;;;;0.95;0.95;;;;;;;18.17;100.00;100025.69;5015014;28;20226;-77
2023/05/27 01:30:37;;;;;;;1.10;1.10;;;;;;;18.00;100.00;100022.47;5050705;28;20191;-78
2023/05/27 01:33:09;;;;;;;0.90;0.90;;;;;;;18.05;100.00;100026.75;5049601;28;20226;-77
2023/05/27 01:35:43;;;;;;;0.90;0.90;;;;;;;18.12;100.00;100017.88;5032413;28;20572;-78
2023/05/27 01:38:13;;;;;;;1.30;1.30;;;;;;;18.11;100.00;100017.94;5050279;28;20651;-78
2023/05/27 01:40:42;;;;;;;1.00;1.00;;;;;;;17.98;100.00;100019.88;5050338;28;20702;-78
2023/05/27 01:43:09;;;;;;;1.00;1.00;;;;;;;17.96;100.00;100011.16;5048457;28;20207;-77
2023/05/27 01:45:37;;;;;;;0.90;0.90;;;;;;;18.17;100.00;100016.06;5050337;28;20681;-77
2023/05/27 01:48:04;;;;;;;1.38;1.33;;;;;;;18.15;100.00;100007.38;5050230;28;20203;-77
2023/05/27 01:50:32;;;;;;;1.70;1.60;;;;;;;18.27;100.00;100033.38;5031446;28;20246;-78
2023/05/27 01:53:01;;;;;;;1.15;1.15;;;;;;;18.01;100.00;100013.72;5048470;28;20269;-78
2023/05/27 01:55:28;;;;;;;1.13;1.13;;;;;;;18.12;100.00;100012.63;5048211;28;20202;-77
2023/05/27 01:57:56;;;;;;;1.15;1.15;;;;;;;18.05;100.00;99995.25;5049976;28;20670;-77
2023/05/27 02:00:24;;;;;;;1.02;1.02;;;;;;;18.07;100.00;100011.88;5050479;28;20647;-78
2023/05/27 02:02:51;;;;;;;0.93;0.93;;;;;;;17.94;100.00;100017.34;5048521;28;20203;-75
2023/05/27 02:05:20;;;;;;;0.90;0.90;;;;;;;18.11;100.00;100018.81;5049975;28;20641;-77
2023/05/27 02:07:47;;;;;;;0.90;0.90;;;;;;;18.20;100.00;100025.63;5010833;28;20220;-76
2023/05/27 02:10:14;;;;;;;0.90;0.90;;;;;;;18.17;100.00;100021.31;5044768;28;20238;-76
2023/05/27 02:12:41;;;;;;;0.90;0.90;;;;;;;18.16;100.00;100031.81;5046769;28;20634;-76
2023/05/27 02:15:10;;;;;;;0.90;0.90;;;;;;;18.19;100.00;100019.50;5050296;28;20199;-76
2023/05/27 02:17:37;;;;;;;1.00;1.00;;;;;;;18.32;100.00;100043.81;5050254;28;20305;-76
2023/05/27 02:20:05;;;;;;;0.90;0.90;;;;;;;18.41;100.00;100034.94;5045421;28;20250;-76
2023/05/27 02:22:32;;;;;;;0.90;0.90;;;;;;;18.38;100.00;100030.56;5034784;28;20222;-77
2023/05/27 02:24:58;;;;;;;0.80;0.80;;;;;;;18.50;100.00;100030.38;5049752;28;20204;-76
2023/05/27 02:27:25;;;;;;;1.10;1.10;;;;;;;18.53;100.00;100042.59;5050467;28;20697;-75
2023/05/27 02:29:52;;;;;;;1.00;1.00;;;;;;;18.56;100.00;100051.28;5053504;28;20203;-76
2023/05/27 02:32:20;;;;;;;0.98;0.98;;;;;;;18.59;100.00;100047.72;5053451;28;20203;-76
2023/05/27 02:34:47;;;;;;;0.90;0.90;;;;;;;18.53;100.00;100045.22;5052808;28;20208;-76
2023/05/27 02:37:14;;;;;;;0.95;0.95;;;;;;;18.46;100.00;100033.06;5053611;28;20288;-76
2023/05/27 02:39:41;;;;;;;0.90;0.90;;;;;;;18.58;100.00;100056.53;5053812;28;20234;-76
2023/05/27 02:42:08;;;;;;;1.10;1.10;;;;;;;18.63;100.00;100054.66;5052344;28;20294;-76
2023/05/27 02:44:35;;;;;;;0.90;0.90;;;;;;;18.62;100.00;100052.94;5052619;28;20198;-78
2023/05/27 02:47:01;;;;;;;1.00;1.00;;;;;;;18.56;100.00;100050.41;5053065;28;20301;-76
2023/05/27 02:49:29;;;;;;;0.85;0.85;;;;;;;18.32;100.00;100047.31;5052822;28;20670;-76
2023/05/27 02:51:56;;;;;;;0.90;0.90;;;;;;;18.30;100.00;100048.19;5017145;28;20207;-77
2023/05/27 02:54:23;;;;;;;0.90;0.90;;;;;;;18.22;100.00;100053.59;5033556;28;20206;-76
2023/05/27 02:56:50;;;;;;;1.00;1.00;;;;;;;18.07;100.00;100045.97;5051986;28;20242;-76
2023/05/27 02:59:16;;;;;;;0.82;0.82;;;;;;;18.16;100.00;100051.06;5033813;28;20208;-75
2023/05/27 03:01:43;;;;;;;0.90;0.90;;;;;;;18.07;100.00;100027.59;5016457;28;20744;-75
2023/05/27 03:04:10;;;;;;;0.80;0.80;;;;;;;18.34;100.00;100047.25;5052525;28;20257;-76
2023/05/27 03:06:38;;;;;;;0.88;0.88;;;;;;;18.52;100.00;100065.34;5052585;28;20214;-76
2023/05/27 03:09:07;;;;;;;0.70;0.70;;;;;;;18.54;100.00;100067.97;5051349;28;20216;-76
2023/05/27 03:11:33;;;;;;;0.75;0.75;;;;;;;18.55;100.00;100065.31;5051607;28;20199;-76
2023/05/27 03:14:00;;;;;;;0.70;0.70;;;;;;;18.43;100.00;100065.50;5052327;28;20203;-76
2023/05/27 03:16:27;;;;;;;0.80;0.80;;;;;;;18.49;100.00;100072.38;5052386;28;20215;-75
2023/05/27 03:18:54;;;;;;;0.90;0.90;;;;;;;18.61;100.00;100074.84;5051574;28;20215;-77
2023/05/27 03:21:21;;;;;;;0.90;0.90;;;;;;;18.55;100.00;100085.47;5052175;28;20219;-77
2023/05/27 03:23:49;;;;;;;0.90;0.90;;;;;;;18.64;100.00;100073.03;5051114;28;20199;-77
2023/05/27 03:26:16;;;;;;;0.90;0.90;;;;;;;18.81;100.00;100097.22;5052256;28;20685;-76
2023/05/27 03:28:42;;;;;;;0.90;0.90;;;;;;;19.01;100.00;100106.53;5033468;28;20744;-76
2023/05/27 03:31:12;;;;;;;1.00;1.00;;;;;;;19.01;100.00;100102.13;5031713;28;20203;-76
2023/05/27 03:33:39;;;;;;;0.82;0.82;;;;;;;19.13;100.00;100101.00;5049655;28;20674;-77
2023/05/27 03:36:06;;;;;;;1.00;1.00;;;;;;;19.25;100.00;100101.66;5052329;28;20211;-76
2023/05/27 03:38:33;;;;;;;0.80;0.80;;;;;;;19.09;100.00;100104.59;5050375;28;20208;-77
2023/05/27 03:41:01;;;;;;;0.90;0.90;;;;;;;19.28;100.00;100101.59;5050194;28;20245;-77
2023/05/27 03:43:28;;;;;;;0.80;0.80;;;;;;;19.20;100.00;100100.00;5048345;28;20207;-77
2023/05/27 03:45:55;;;;;;;0.88;0.88;;;;;;;19.46;100.00;100099.50;5051573;28;20603;-78
2023/05/27 03:48:21;;;;;;;1.02;1.02;;;;;;;19.64;100.00;100104.38;5051850;28;20195;-77
2023/05/27 03:50:48;;;;;;;0.80;0.80;;;;;;;19.68;100.00;100106.91;5052352;28;20228;-79
2023/05/27 03:53:15;;;;;;;0.90;0.90;;;;;;;19.68;100.00;100099.03;5051348;28;20211;-78
2023/05/27 03:55:42;;;;;;;1.00;1.00;;;;;;;19.80;100.00;100108.41;5050263;28;20202;-78
2023/05/27 03:58:13;;;;;;;0.93;0.93;;;;;;;20.12;100.00;100107.69;5051234;28;20195;-78
2023/05/27 04:00:41;;;;;;;0.90;0.90;;;;;;;19.97;100.00;100119.44;5050432;28;20219;-77
2023/05/27 04:41:01;;;;;;;0.63;0.63;;;;;;;21.32;100.00;100123.06;5067369;28;20548;-77
2023/05/27 04:43:29;;;;;;;0.70;0.70;;;;;;;21.56;100.00;100135.56;5059951;28;20329;-74
2023/05/27 04:45:56;;;;;;;0.70;0.70;;;;;;;21.87;100.00;100154.88;5032598;28;20209;-73
2023/05/27 04:48:24;;;;;;;0.70;0.70;;;;;;;22.19;100.00;100160.06;5067218;28;20195;-71
2023/05/27 04:50:53;;;;;;;0.60;0.60;;;;;;;21.76;100.00;100126.16;5066012;28;20293;-72
2023/05/27 04:53:19;;;;;;;0.70;0.70;;;;;;;21.73;100.00;100141.22;5066282;28;20730;-73
2023/05/27 04:55:46;;;;;;;0.85;0.85;;;;;;;21.91;100.00;100156.53;5059761;28;20207;-73
2023/05/27 04:58:14;;;;;;;1.13;1.13;;;;;;;21.74;100.00;100166.69;5059960;28;20619;-73
2023/05/27 05:00:49;;;;;;;0.70;0.70;;;;;;;21.42;100.00;100153.56;5067106;28;20210;-73
2023/05/27 05:03:20;;;;;;;0.77;0.77;;;;;;;21.17;100.00;100156.88;5065813;28;20198;-72
2023/05/27 05:05:49;;;;;;;0.90;0.90;;;;;;;21.23;100.00;100159.34;5067177;28;20697;-77
2023/05/27 05:08:15;;;;;;;0.90;0.90;;;;;;;21.66;100.00;100135.25;5067405;28;20199;-73
2023/05/27 05:10:42;;;;;;;0.85;0.85;;;;;;;21.78;100.00;100147.22;5064051;28;20313;-72
2023/05/27 05:13:09;;;;;;;1.05;1.05;;;;;;;21.65;100.00;100172.25;5066413;28;20203;-73
2023/05/27 05:15:37;;;;;;;1.00;1.00;;;;;;;21.48;100.00;100171.84;5066801;28;20268;-71
2023/05/27 05:18:04;;;;;;;0.80;0.80;;;;;;;21.25;100.00;100165.47;5065544;28;20697;-71
2023/05/27 05:20:31;;;;;;;1.00;1.00;;;;;;;21.24;100.00;100166.34;5055519;28;20316;-74
2023/05/27 05:22:58;;;;;;;0.90;0.90;;;;;;;20.89;100.00;100165.53;5059120;28;20281;-72
2023/05/27 05:25:25;;;;;;;1.00;1.00;;;;;;;20.80;100.00;100171.03;5065655;28;20199;-73
2023/05/27 05:27:53;;;;;;;0.77;0.77;;;;;;;20.83;100.00;100166.56;5057427;28;20192;-73
2023/05/27 05:30:20;;;;;;;1.00;1.00;;;;;;;20.73;100.00;100160.63;5054822;28;20318;-73
2023/05/27 05:32:48;;;;;;;0.90;0.90;;;;;;;20.87;100.00;100173.44;5042813;28;20212;-73
2023/05/27 05:35:15;;;;;;;1.10;1.10;;;;;;;20.36;100.00;100130.84;5059326;28;20214;-73
2023/05/27 05:37:41;;;;;;;1.00;1.00;;;;;;;20.62;100.00;100188.13;5051688;28;20761;-72
2023/05/27 05:40:11;;;;;;;1.00;1.00;;;;;;;20.54;100.00;100158.50;5059954;28;20661;-72
2023/05/27 05:42:37;;;;;;;0.80;0.80;;;;;;;20.66;100.00;100180.13;5041682;28;20613;-73
2023/05/27 05:45:05;;;;;;;0.90;0.90;;;;;;;20.48;100.00;100179.69;5045799;28;20609;-74
2023/05/27 05:47:32;;;;;;;1.00;1.00;;;;;;;20.44;100.00;100172.81;5015410;28;20199;-72
2023/05/27 05:50:01;;;;;;;0.90;0.90;;;;;;;20.28;100.00;100177.53;5040099;28;20237;-73
2023/05/27 05:52:27;;;;;;;0.90;0.90;;;;;;;20.32;100.00;100175.72;5042048;28;20218;-73
2023/05/27 05:54:54;;;;;;;0.80;0.80;;;;;;;20.32;100.00;100176.56;5045440;28;20204;-71
2023/05/27 05:57:21;;;;;;;0.80;0.80;;;;;;;20.43;100.00;100193.00;5033283;28;20195;-74
2023/05/27 05:59:48;;;;;;;0.80;0.80;;;;;;;20.45;100.00;100166.59;5048532;28;20199;-72
2023/05/27 06:02:15;;;;;;;1.00;1.00;;;;;;;20.52;100.00;100184.88;5039294;28;20319;-73
2023/05/27 06:04:42;;;;;;;0.90;0.90;;;;;;;20.00;100.00;100123.75;5011535;28;20255;-73
2023/05/27 06:07:10;;;;;;;2.08;1.88;;;;;;;20.48;100.00;100153.34;5043190;28;20678;-82
2023/05/27 06:09:37;;;;;;;0.80;0.80;;;;;;;20.35;100.00;100170.38;5046961;28;20237;-73
2023/05/27 06:12:04;;;;;;;0.70;0.70;;;;;;;20.32;100.00;100157.28;5049824;28;20678;-71
2023/05/27 06:14:31;;;;;;;0.77;0.77;;;;;;;20.78;100.00;100157.88;5045842;28;20192;-71
2023/05/27 06:16:58;;;;;;;0.70;0.70;;;;;;;21.41;100.00;100175.56;5048766;28;20206;-71
2023/05/27 06:19:25;;;;;;;0.80;0.80;;;;;;;21.65;100.00;100194.22;5051405;28;20203;-71
2023/05/27 06:21:52;;;;;;;0.77;0.77;;;;;;;21.36;100.00;100166.94;5051095;28;20290;-71
2023/05/27 06:24:20;;;;;;;0.75;0.75;;;;;;;22.00;100.00;100205.59;5042014;28;20199;-70
2023/05/27 06:26:49;;;;;;;1.00;1.00;;;;;;;22.21;100.00;100205.81;5038958;28;20226;-70
2023/05/27 06:29:16;;;;;;;0.70;0.70;;;;;;;22.25;100.00;100193.38;5039627;28;20249;-70
2023/05/27 06:31:43;;;;;;;0.70;0.70;;;;;;;22.55;100.00;100220.59;5034971;28;20266;-70
2023/05/27 06:34:10;;;;;;;0.80;0.80;;;;;;;22.55;100.00;100205.59;5040989;28;20211;-70
2023/05/27 06:36:37;;;;;;;0.60;0.60;;;;;;;22.70;100.00;100196.34;5037733;28;20203;-76
2023/05/27 06:39:04;;;;;;;0.70;0.70;;;;;;;22.92;100.00;100218.53;5051306;28;20576;-71
2023/05/27 06:41:32;;;;;;;0.80;0.80;;;;;;;23.03;100.00;100219.03;5052651;28;20212;-72
2023/05/27 06:43:59;;;;;;;0.90;0.90;;;;;;;22.85;100.00;100203.78;5049716;28;20619;-71
2023/05/27 06:46:25;;;;;;;0.80;0.80;;;;;;;23.14;100.00;100224.84;5050264;28;20573;-71
2023/05/27 06:48:52;;;;;;;0.80;0.80;;;;;;;22.84;100.00;100188.81;5016281;28;20658;-71
2023/05/27 06:51:19;;;;;;;0.80;0.80;;;;;;;23.02;100.00;100227.00;5051266;28;20198;-71
2023/05/27 06:53:46;;;;;;;0.80;0.80;;;;;;;22.89;100.00;100233.63;5050165;28;20196;-71
2023/05/27 06:56:13;;;;;;;0.90;0.90;;;;;;;22.81;100.00;100230.38;5050929;28;20218;-71
2023/05/27 06:58:41;;;;;;;0.82;0.82;;;;;;;22.86;100.00;100217.88;5048032;28;20199;-70
2023/05/27 07:01:08;;;;;;;0.73;0.73;;;;;;;22.64;100.00;100222.97;5057071;28;20203;-71
2023/05/27 07:03:35;;;;;;;0.80;0.80;;;;;;;22.70;100.00;100214.84;5050472;28;20219;-71
2023/05/27 07:06:02;;;;;;;1.00;1.00;;;;;;;22.44;100.00;100222.72;5050036;28;20210;-71
2023/05/27 07:08:29;;;;;;;0.88;0.88;;;;;;;22.76;100.00;100221.75;5051159;28;20211;-71
2023/05/27 07:10:55;;;;;;;0.80;0.80;;;;;;;22.53;100.00;100233.00;5050823;28;20226;-71
2023/05/27 07:13:22;;;;;;;0.70;0.70;;;;;;;22.29;100.00;100225.84;5051003;28;20200;-71
2023/05/27 07:15:51;;;;;;;0.70;0.70;;;;;;;22.01;100.00;100216.06;5050572;28;20219;-71
2023/05/27 07:18:18;;;;;;;0.80;0.80;;;;;;;21.81;100.00;100217.53;5032951;28;20287;-71
2023/05/27 07:20:45;;;;;;;0.90;0.90;;;;;;;21.83;100.00;100219.22;5030940;28;20204;-71
2023/05/27 07:23:11;;;;;;;0.70;0.70;;;;;;;21.89;100.00;100220.84;5047964;28;20270;-78
2023/05/27 07:25:38;;;;;;;0.70;0.70;;;;;;;21.84;100.00;100206.88;4998269;28;20634;-71
2023/05/27 07:28:05;;;;;;;0.90;0.90;;;;;;;22.10;100.00;100221.09;5044069;28;20665;-71
2023/05/27 07:30:32;;;;;;;0.88;0.88;;;;;;;22.13;100.00;100213.09;5034276;28;20212;-69
2023/05/27 07:33:00;;;;;;;0.90;0.90;;;;;;;22.29;100.00;100225.84;5031076;28;20618;-69
2023/05/27 07:35:27;;;;;;;1.05;1.05;;;;;;;22.11;100.00;100224.63;5030540;28;20200;-71
2023/05/27 07:37:54;;;;;;;0.80;0.80;;;;;;;21.58;100.00;100215.56;5030724;28;20200;-70
2023/05/27 07:40:21;;;;;;;0.80;0.80;;;;;;;21.76;100.00;100222.94;5035358;28;20239;-71
2023/05/27 07:42:48;;;;;;;0.73;0.73;;;;;;;21.53;100.00;100198.97;5040247;28;20549;-71
2023/05/27 07:45:15;;;;;;;0.80;0.80;;;;;;;21.76;100.00;100217.66;5047584;28;20212;-71
2023/05/27 07:47:42;;;;;;;0.80;0.80;;;;;;;21.90;100.00;100215.56;5045714;28;20295;-70
2023/05/27 07:50:11;;;;;;;0.80;0.80;;;;;;;22.01;100.00;100216.06;5042387;28;20231;-71
2023/05/27 07:52:38;;;;;;;0.70;0.70;;;;;;;21.85;100.00;100216.53;5050302;28;20210;-71
2023/05/27 07:55:05;;;;;;;0.90;0.90;;;;;;;22.07;100.00;100215.91;5050258;28;20204;-71
2023/05/27 07:57:33;;;;;;;0.80;0.80;;;;;;;21.85;100.00;100230.63;5015050;28;20201;-71
2023/05/27 07:59:59;;;;;;;0.80;0.80;;;;;;;21.84;100.00;100231.53;5049987;28;20200;-70
2023/05/27 08:02:26;;;;;;;1.25;1.25;;;;;;;21.80;100.00;100223.72;5043842;28;20670;-70
2023/05/27 08:04:53;;;;;;;0.80;0.80;;;;;;;21.60;100.00;100214.63;5049895;28;20203;-71
2023/05/27 08:07:21;;;;;;;0.70;0.70;;;;;;;21.54;100.00;100229.75;5047988;28;20199;-71
2023/05/27 08:09:48;;;;;;;0.80;0.80;;;;;;;21.21;100.00;100162.94;5047091;28;20822;-71
2023/05/27 08:12:15;;;;;;;1.00;1.00;;;;;;;21.53;100.00;100222.72;5049876;28;20203;-70
2023/05/27 08:14:42;;;;;;;0.77;0.77;;;;;;;21.26;100.00;100201.44;5050001;28;20207;-71
2023/05/27 08:17:09;;;;;;;0.90;0.90;;;;;;;21.62;100.00;100233.03;5045122;28;20929;-73
2023/05/27 08:19:35;;;;;;;0.93;0.93;;;;;;;21.46;100.00;100223.81;5045359;28;20214;-72
2023/05/27 08:22:03;;;;;;;0.80;0.80;;;;;;;21.44;100.00;100218.56;5044326;28;20203;-72
2023/05/27 08:24:31;;;;;;;0.80;0.80;;;;;;;21.59;100.00;100220.78;5049487;28;20203;-80
2023/05/27 08:26:58;;;;;;;0.88;0.88;;;;;;;21.88;100.00;100197.97;5049727;28;20272;-79
2023/05/27 08:29:27;;;;;;;1.00;1.00;;;;;;;22.09;100.00;100237.84;5054436;28;20227;-74
2023/05/27 08:31:55;;;;;;;0.80;0.80;;;;;;;22.17;100.00;100220.00;5053622;28;20216;-73
2023/05/27 08:34:22;;;;;;;1.00;1.00;;;;;;;22.02;100.00;100233.66;5050472;28;20207;-79
2023/05/27 08:36:49;;;;;;;0.90;0.90;;;;;;;22.05;100.00;100201.88;5049052;28;20200;-72
2023/05/27 08:39:16;;;;;;;0.77;0.77;;;;;;;22.48;100.00;100238.41;5048847;28;20579;-72
2023/05/27 08:41:44;;;;;;;0.85;0.85;;;;;;;22.16;100.00;100165.44;5054893;28;20680;-72
2023/05/27 08:44:11;;;;;;;0.98;0.98;;;;;;;21.95;100.00;100187.22;5061147;28;20204;-72
2023/05/27 08:46:38;;;;;;;1.10;1.10;;;;;;;22.14;100.00;100221.88;5055661;28;20210;-72
2023/05/27 08:49:07;;;;;;;1.20;1.20;;;;;;;22.14;100.00;100196.34;5060253;28;20195;-72
2023/05/27 08:51:36;;;;;;;1.10;1.10;;;;;;;22.32;100.00;100217.81;5042817;28;20235;-73
2023/05/27 08:54:03;;;;;;;1.25;1.25;;;;;;;22.44;100.00;100217.44;5049937;28;20203;-73
2023/05/27 08:56:32;;;;;;;1.00;1.00;;;;;;;22.82;100.00;100213.59;5049014;28;20199;-72
2023/05/27 08:59:01;;;;;;;1.40;1.40;;;;;;;22.64;100.00;100176.25;5013763;28;20219;-72
2023/05/27 09:01:29;;;;;;;1.10;1.10;;;;;;;22.48;100.00;100216.41;5049700;28;20203;-73
2023/05/27 09:03:56;;;;;;;1.25;1.25;;;;;;;22.88;100.00;100218.69;5040619;28;20552;-73
2023/05/27 09:06:23;;;;;;;1.20;1.20;;;;;;;22.98;100.00;100222.75;5044067;28;20297;-72
2023/05/27 09:08:50;;;;;;;1.10;1.10;;;;;;;23.09;100.00;100225.88;5047439;28;20219;-71
2023/05/27 09:11:22;;;;;;;1.25;1.25;;;;;;;23.28;100.00;100215.56;5029248;28;20227;-73
2023/05/27 09:13:49;;;;;;;1.10;1.10;;;;;;;23.61;100.00;100214.41;5060495;28;20210;-69
2023/05/27 09:16:21;;;;;;;1.13;1.13;;;;;;;24.16;100.00;100222.03;5057549;28;20200;-69
2023/05/27 09:18:49;;;;;;;1.10;1.10;;;;;;;23.96;100.00;100206.00;5052176;28;20198;-72
2023/05/27 09:21:16;;;;;;;1.10;1.10;;;;;;;24.13;100.00;100211.56;5052649;28;20211;-73
2023/05/27 09:23:43;;;;;;;1.40;1.40;;;;;;;24.35;100.00;100197.47;5033935;28;20207;-73
2023/05/27 09:26:10;;;;;;;1.25;1.25;;;;;;;24.58;100.00;100189.44;5052388;28;20576;-72
2023/05/27 09:28:39;;;;;;;1.20;1.20;;;;;;;24.79;100.00;100212.47;5051376;28;20585;-74
2023/05/27 09:31:08;;;;;;;1.17;1.17;;;;;;;25.37;100.00;100210.88;5052668;28;20709;-73
2023/05/27 09:33:38;;;;;;;1.23;1.23;;;;;;;25.68;100.00;100218.41;5017115;28;20261;-74
2023/05/27 09:36:06;;;;;;;1.27;1.27;;;;;;;25.18;100.00;100209.97;5052633;28;20593;-74
2023/05/27 09:38:34;;;;;;;1.40;1.40;;;;;;;24.84;100.00;100202.56;5045236;28;20210;-72
2023/05/27 09:41:02;;;;;;;1.20;1.20;;;;;;;24.70;100.00;100199.56;5051770;28;20208;-73
2023/05/27 09:43:29;;;;;;;1.30;1.30;;;;;;;24.93;100.00;100194.22;5048602;28;20195;-75
2023/05/27 09:46:01;;;;;;;1.20;1.20;;;;;;;25.08;100.00;100195.34;5046878;28;20230;-82
2023/05/27 09:48:30;;;;;;;1.00;1.00;;;;;;;25.15;100.00;100199.47;5049860;28;20211;-80
2023/05/27 09:50:59;;;;;;;1.10;1.10;;;;;;;24.90;100.00;100170.44;5017536;28;20890;-75
2023/05/27 09:53:27;;;;;;;1.20;1.20;;;;;;;24.78;100.00;100192.16;5045629;28;20226;-80
2023/05/27 09:55:54;;;;;;;1.20;1.20;;;;;;;24.42;100.00;100183.06;5049367;28;20206;-73
2023/05/27 09:58:22;;;;;;;1.17;1.17;;;;;;;24.64;100.00;100184.78;5050232;28;20195;-73
2023/05/27 10:00:49;;;;;;;1.20;1.20;;;;;;;24.57;100.00;100178.00;5051717;28;20195;-73
2023/05/27 10:03:17;;;;;;;1.15;1.15;;;;;;;24.13;100.00;100181.56;5052078;28;20527;-73
2023/05/27 10:05:45;;;;;;;1.20;1.20;;;;;;;24.03;100.00;100180.16;5017486;28;20203;-72
2023/05/27 10:08:13;;;;;;;1.20;1.20;;;;;;;24.07;100.00;100190.59;5052160;28;20386;-74
2023/05/27 10:10:41;;;;;;;1.20;1.20;;;;;;;23.64;100.00;100122.50;5057554;28;20231;-75
2023/05/27 10:13:09;;;;;;;1.25;1.25;;;;;;;24.13;100.00;100178.91;5046504;28;20203;-73
2023/05/27 10:15:36;;;;;;;1.10;1.10;;;;;;;24.38;100.00;100152.28;5045825;28;20269;-72
2023/05/27 10:18:05;;;;;;;1.10;1.10;;;;;;;24.76;100.00;100170.13;5051605;28;20210;-74
2023/05/27 10:20:36;;;;;;;1.20;1.20;;;;;;;24.61;100.00;100176.09;5050335;28;20647;-75
2023/05/27 10:23:15;;;;;;;1.10;1.10;;;;;;;24.56;100.00;100159.50;5053806;28;20571;-76
2023/05/27 10:25:48;;;;;;;1.13;1.13;;;;;;;24.53;100.00;100168.44;5061377;28;20199;-76
2023/05/27 10:28:25;;;;;;;1.00;1.00;;;;;;;24.75;100.00;100171.09;5064531;28;20236;-75
2023/05/27 10:30:53;;;;;;;1.10;1.10;;;;;;;24.27;100.00;100151.84;5047691;28;20296;-78
2023/05/27 10:33:30;;;;;;;1.20;1.20;;;;;;;24.64;100.00;100168.88;5055061;28;20654;-74
2023/05/27 10:36:04;;;;;;;1.20;1.20;;;;;;;24.12;100.00;100064.06;5064604;28;20207;-76
2023/05/27 10:38:32;;;;;;;1.15;1.15;;;;;;;24.84;100.00;100130.94;5017346;28;20203;-74
2023/05/27 10:41:01;;;;;;;1.10;1.10;;;;;;;25.15;100.00;100160.53;5051550;28;20231;-74
2023/05/27 10:43:29;;;;;;;1.38;1.38;;;;;;;24.65;100.00;100119.31;5030492;28;20262;-74
2023/05/27 10:46:03;;;;;;;1.10;1.10;;;;;;;24.56;100.00;100096.72;5032898;28;20204;-74
2023/05/27 10:48:32;;;;;;;1.25;1.25;;;;;;;24.73;100.00;100081.88;5050686;28;20260;-73
2023/05/27 10:51:00;;;;;;;1.20;1.20;;;;;;;24.58;100.00;100063.03;5051946;28;20219;-74
2023/05/27 10:53:28;;;;;;;1.33;1.33;;;;;;;25.18;100.00;100147.09;5035359;28;20234;-74
2023/05/27 10:55:59;;;;;;;1.20;1.20;;;;;;;25.03;100.00;100089.41;5032308;28;20196;-73
2023/05/27 10:58:26;;;;;;;1.40;1.40;;;;;;;24.86;100.00;100089.31;5032444;28;20200;-73
2023/05/27 11:00:54;;;;;;;1.33;1.33;;;;;;;25.00;100.00;100110.78;5030821;28;20523;-75
2023/05/27 11:03:23;;;;;;;1.17;1.17;;;;;;;25.09;100.00;100123.63;5030962;28;20192;-72
2023/05/27 11:06:00;;;;;;;1.30;1.30;;;;;;;25.36;100.00;100124.22;5041208;28;20199;-74
2023/05/27 11:08:27;;;;;;;1.23;1.23;;;;;;;25.15;100.00;100102.13;5047115;28;20210;-73
2023/05/27 11:11:00;;;;;;;1.20;1.20;;;;;;;25.16;100.00;100114.47;5050392;28;20314;-75
2023/05/27 11:13:34;;;;;;;1.20;1.20;;;;;;;24.99;100.00;100100.22;5050562;28;20199;-75
2023/05/27 11:16:02;;;;;;;1.27;1.27;;;;;;;25.09;100.00;100114.81;5050878;28;20191;-78
2023/05/27 11:18:40;;;;;;;1.30;1.30;;;;;;;25.44;99.42;100107.91;5050144;28;20195;-75
2023/05/27 11:21:07;;;;;;;1.30;1.30;;;;;;;25.61;91.92;100110.72;5041388;28;20596;-76
2023/05/27 11:23:39;;;;;;;1.17;1.17;;;;;;;25.83;100.00;100100.81;5044325;28;20962;-75
2023/05/27 11:26:14;;;;;;;1.15;1.15;;;;;;;25.84;77.35;100113.16;5050499;28;20246;-75
2023/05/27 11:28:46;;;;;;;1.13;1.13;;;;;;;26.11;68.57;100084.41;5050297;28;20269;-74
2023/05/27 11:31:13;;;;;;;1.27;1.27;;;;;;;26.37;81.93;100096.44;5015141;28;20230;-73
2023/05/27 11:33:43;;;;;;;1.25;1.25;;;;;;;26.28;77.25;100091.59;5049975;28;20206;-74
2023/05/27 11:36:13;;;;;;;1.20;1.20;;;;;;;26.20;82.61;100089.31;5047543;28;20659;-75
2023/05/27 11:38:48;;;;;;;1.00;1.00;;;;;;;26.43;79.36;100080.22;5046661;28;20206;-71
2023/05/27 11:41:16;;;;;;;1.10;1.10;;;;;;;26.52;86.05;100071.75;5050064;28;20198;-77
2023/05/27 11:43:51;;;;;;;1.00;1.00;;;;;;;26.39;88.47;100068.00;5050074;28;20696;-76
2023/05/27 11:46:18;;;;;;;2.28;2.17;;;;;;;26.00;88.33;100066.34;5015525;28;20199;-77
2023/05/27 11:48:45;;;;;;;0.98;0.98;;;;;;;25.79;76.07;100059.38;5049979;28;20210;-74
2023/05/27 11:51:12;;;;;;;1.10;1.10;;;;;;;25.86;74.71;100063.47;5049751;28;20736;-74
2023/05/27 11:53:45;;;;;;;1.00;1.00;;;;;;;26.09;74.25;100078.31;5043266;28;20234;-76
2023/05/27 11:56:12;;;;;;;0.98;0.98;;;;;;;26.14;74.27;100085.13;5032097;28;20196;-74
2023/05/27 11:58:40;;;;;;;1.00;1.00;;;;;;;26.07;71.63;100082.84;5036071;28;20207;-73